Pagrindinis puslapis
METAR-TAF:

METAR-TAF

Oro uostai :

Savonlinna, Suomija

platuma: 61-57N, ilguma: 028-57E, Aukštis: 95 m

Dabartinis oras

Ataskaita buvo paskelbta 28 minutes, ne 01:50 UTC
Vėjas 8 kt iš Šiaurės Rytų
Temperatūra -5°C
Drėgmė 73%
Slėgis 1014 hPa
Matomumas 10 km arba daugiau
Mažai debesys ne aukštis 3600 ft
sniegas,

METAR: EFSA 190150Z AUTO 05008KT 9999 -SN FEW036 M05/M09 Q1014

Laikas: 05:18 (02:18 UTC)

Prognozė

Ataskaita buvo paskelbta 11 valandos ir 52 minutes, ne 14:26 UTC
Prognozė galioja nuo 18 metu 15 UTC su 18 metu 18 UTC
Vėjas 7 kt iš Rytų/Šiaurės Rytų
Matomumas 10 km arba daugiau
Apsiniaukę ne aukštis 3700 ft

TAF: EFSA 181426Z 1815/1818 06007KT 9999 OVC037

Orai ataskaitas ir orų prognozės (METAR, TAF).

turimą stotys yra geltonos ir raudonos taškus žemėlapyje.

Perkelti pele per norėdami pamatyti stoties vardą.

Tada spustelėkite, norėdami matyti oro stebėjimo ir prognozės.

Norėdami pakeisti žemėlapį: spustelėkite ant žalios mygtukų su juodo kryžiaus žemyn,; žalią mygtuką su brūkšneliu, jei norite nutolinti; arba žalių rodyklių gretimoms žemėlapius.


METAR-TAF: